Date,TemperatureHighF,TemperatureAvgF,TemperatureLowF,DewpointHighF,DewpointAvgF,DewpointLowF,HumidityHigh,HumidityAvg,HumidityLow,PressureMaxIn,PressureMinIn,WindSpeedMaxMPH,WindSpeedAvgMPH,GustSpeedMaxMPH,PrecipitationSumIn
2013-1-1,44,33,27,-100,-100,-100,0,0,100,0.00,40.00,0,-999,0,0.01
2013-1-2,51,30,24,-100,-100,-100,0,0,100,0.00,40.00,0,-999,0,0.01
2013-1-3,50,30,22,-100,-100,-100,0,0,100,0.00,40.00,0,-999,0,0.43
2013-1-4,48,38,35,-100,-100,-100,0,0,100,0.00,40.00,0,-999,0,0.67
2013-1-5,45,39,36,-100,-100,-100,0,0,100,0.00,40.00,0,-999,0,0.16
2013-1-6,42,38,35,-100,-100,-100,0,0,100,0.00,40.00,0,-999,0,0.74
2013-1-7,47,41,35,-100,-100,-100,0,0,100,0.00,40.00,0,-999,0,1.49
2013-1-8,48,42,35,-100,-100,-100,0,0,100,0.00,40.00,0,-999,0,2.43
2013-1-9,47,37,29,-100,-100,-100,0,0,100,0.00,40.00,0,-999,0,1.95
2013-1-10,36,32,27,-100,-100,-100,0,0,100,0.00,40.00,0,-999,0,0.02
2013-1-11,38,31,25,-100,-100,-100,0,0,100,0.00,40.00,0,-999,0,0.01
2013-1-12,38,30,23,-100,-100,-100,0,0,100,0.00,40.00,0,-999,0,0.00
2013-1-13,38,28,22,-100,-100,-100,0,0,100,0.00,40.00,0,-999,0,0.00
2013-1-14,32,27,20,-100,-100,-100,0,0,100,0.00,40.00,0,-999,0,0.00
2013-1-15,44,29,23,-100,-100,-100,0,0,100,0.00,40.00,0,-999,0,0.00
2013-1-16,49,27,20,-100,-100,-100,0,0,100,0.00,40.00,0,-999,0,0.00
2013-1-17,45,30,22,-100,-100,-100,0,0,100,0.00,40.00,0,-999,0,0.00
2013-1-18,46,32,18,-100,-100,-100,0,0,100,0.00,40.00,0,-999,0,0.01
2013-1-19,44,32,24,-100,-100,-100,0,0,100,0.00,40.00,0,-999,0,0.01
2013-1-20,45,33,29,-100,-100,-100,0,0,100,0.00,40.00,0,-999,0,0.00
2013-1-21,36,32,27,-100,-100,-100,0,0,100,0.00,40.00,0,-999,0,0.00
2013-1-22,40,31,21,-100,-100,-100,0,0,100,0.00,40.00,0,-999,0,0.00
2013-1-23,43,38,31,-100,-100,-100,0,0,100,0.00,40.00,0,-999,0,0.79
2013-1-24,41,34,27,-100,-100,-100,0,0,100,0.00,40.00,0,-999,0,0.44
2013-1-25,55,40,31,-100,-100,-100,0,0,100,0.00,40.00,0,-999,0,0.45
2013-1-26,40,37,32,-100,-100,-100,0,0,100,0.00,40.00,0,-999,0,0.77
2013-1-27,39,34,30,-100,-100,-100,0,0,100,0.00,40.00,0,-999,0,0.28
2013-1-28,41,38,31,-100,-100,-100,0,0,100,0.00,40.00,0,-999,0,0.17
2013-1-29,51,44,40,-100,-100,-100,0,0,100,0.00,40.00,0,-999,0,0.22
2013-1-30,48,45,42,-100,-100,-100,0,0,100,0.00,40.00,0,-999,0,0.40
2013-1-31,47,45,43,-100,-100,-100,0,0,100,0.00,40.00,0,-999,0,0.40